Time;durP1;ratioP1;P1;durP2;ratioP2;P2;SDS_P1;SDS_P2;PMS_P1;PMS_P2;Temp;Humidity;BMP_temperature;BMP_pressure;BME280_temperature;BME280_humidity;BME280_pressure;Samples;Min_cycle;Max_cycle;Signal;HPM_P1;HPM_P2
2022/12/13 00:01:07;;;;;;;72.15;29.00;;;;;;;-4.67;100.00;99844.22;21073511;28;20044;-73
2022/12/13 00:11:09;;;;;;;67.95;26.55;;;;;;;-4.67;100.00;99831.47;21074108;28;20074;-73
2022/12/13 00:21:10;;;;;;;64.55;24.20;;;;;;;-4.73;100.00;99832.94;21072875;28;20135;-73
2022/12/13 00:31:11;;;;;;;64.15;26.13;;;;;;;-4.79;100.00;99828.47;21070647;28;20063;-73
2022/12/13 00:41:33;;;;;;;60.92;25.33;;;;;;;-4.73;100.00;99817.63;21070546;28;20059;-72
2022/12/13 00:51:34;;;;;;;66.93;26.35;;;;;;;-4.79;100.00;99815.72;21071312;28;20059;-73
2022/12/13 01:01:35;;;;;;;68.07;25.95;;;;;;;-4.81;100.00;99798.59;21069566;28;20101;-72
2022/12/13 01:11:37;;;;;;;68.15;25.63;;;;;;;-4.85;100.00;99791.63;21069818;28;20102;-72
2022/12/13 01:21:38;;;;;;;70.15;26.92;;;;;;;-4.97;100.00;99808.25;21068421;28;20056;-72
2022/12/13 01:31:40;;;;;;;68.07;26.88;;;;;;;-5.07;100.00;99800.19;21067941;28;20044;-73
2022/12/13 01:41:42;;;;;;;63.83;26.60;;;;;;;-5.05;100.00;99796.88;21068140;28;20121;-72
2022/12/13 01:51:43;;;;;;;68.70;28.35;;;;;;;-5.13;100.00;99795.72;21066879;28;20488;-72
2022/12/13 02:01:44;;;;;;;64.90;25.75;;;;;;;-5.18;100.00;99792.13;21083299;28;20097;-73
2022/12/13 02:11:46;;;;;;;65.15;26.70;;;;;;;-5.21;100.00;99781.81;21083172;28;20459;-74
2022/12/13 02:21:47;;;;;;;71.03;27.75;;;;;;;-5.27;100.00;99776.47;21082172;28;20062;-72
2022/12/13 02:31:48;;;;;;;66.55;26.77;;;;;;;-5.28;100.00;99779.84;21081284;28;20097;-73
2022/12/13 02:41:50;;;;;;;68.47;26.90;;;;;;;-5.31;100.00;99778.06;21080652;28;20401;-72
2022/12/13 02:51:51;;;;;;;72.95;28.40;;;;;;;-5.33;100.00;99783.91;21062089;28;20113;-72
2022/12/13 03:01:52;;;;;;;78.10;27.25;;;;;;;-5.53;100.00;99771.25;21078975;28;20052;-73
2022/12/13 03:22:30;;;;;;;72.18;26.95;;;;;;;-5.50;100.00;99745.03;21028983;28;20057;-71
2022/12/13 03:32:31;;;;;;;69.85;27.02;;;;;;;-5.44;100.00;99738.47;20992692;28;20062;-71
2022/12/13 03:42:32;;;;;;;74.45;27.98;;;;;;;-5.35;100.00;99737.06;20992714;28;20052;-70
2022/12/13 03:52:34;;;;;;;72.68;27.40;;;;;;;-5.28;100.00;99731.34;21029848;28;20044;-71
2022/12/13 04:02:35;;;;;;;71.93;25.73;;;;;;;-5.38;100.00;99731.84;21074330;28;20725;-71
2022/12/13 04:23:00;;;;;;;65.18;25.23;;;;;;;-5.32;100.00;99726.94;21064984;28;20159;-73
2022/12/13 04:33:10;;;;;;;69.57;25.52;;;;;;;-5.44;100.00;99727.38;20988704;28;20049;-72
2022/12/13 04:43:12;;;;;;;78.00;27.92;;;;;;;-5.49;100.00;99734.88;20998611;28;20122;-72
2022/12/13 04:53:13;;;;;;;74.05;29.30;;;;;;;-5.49;100.00;99739.97;20986830;28;20048;-72
2022/12/13 05:03:15;;;;;;;81.22;30.05;;;;;;;-5.59;100.00;99737.88;20986014;28;20484;-72
2022/12/13 05:13:16;;;;;;;70.00;27.98;;;;;;;-5.72;100.00;99728.03;20985536;28;20052;-72
2022/12/13 05:23:17;;;;;;;74.70;28.20;;;;;;;-5.78;100.00;99736.31;21040658;28;20071;-72
2022/12/13 05:33:23;;;;;;;77.82;29.45;;;;;;;-5.77;100.00;99737.19;21066623;28;20062;-72
2022/12/13 05:43:24;;;;;;;82.35;29.52;;;;;;;-5.90;100.00;99730.72;21066985;28;20386;-72
2022/12/13 05:53:43;;;;;;;74.30;29.13;;;;;;;-5.96;100.00;99727.97;21067586;28;20052;-72
2022/12/13 06:03:51;;;;;;;69.40;26.85;;;;;;;-5.99;100.00;99721.09;21066900;28;20040;-72
2022/12/13 06:13:53;;;;;;;68.22;26.42;;;;;;;-5.92;100.00;99727.28;21066544;28;20135;-72
2022/12/13 06:24:04;;;;;;;70.75;26.52;;;;;;;-5.86;100.00;99716.44;21066554;28;20079;-73
2022/12/13 06:34:05;;;;;;;68.28;26.17;;;;;;;-5.85;100.00;99720.72;21064965;28;20078;-72
2022/12/13 06:44:15;;;;;;;62.15;23.98;;;;;;;-5.87;100.00;99720.66;21075066;28;20066;-72
2022/12/13 06:54:16;;;;;;;62.03;26.13;;;;;;;-5.97;100.00;99729.66;21080413;28;20060;-70
2022/12/13 07:04:22;;;;;;;74.63;27.45;;;;;;;-5.88;100.00;99723.16;21078530;28;20052;-70
2022/12/13 07:14:30;;;;;;;68.15;27.60;;;;;;;-5.84;100.00;99736.09;21077709;28;20063;-70
2022/12/13 07:24:41;;;;;;;60.33;24.15;;;;;;;-5.84;100.00;99763.25;21077339;28;20063;-70
2022/12/13 07:34:42;;;;;;;64.13;26.05;;;;;;;-5.80;100.00;99762.53;21074525;28;20052;-70
2022/12/13 07:44:44;;;;;;;57.75;23.23;;;;;;;-5.81;100.00;99769.31;21076332;28;20055;-70
2022/12/13 07:54:45;;;;;;;65.40;23.90;;;;;;;-5.65;100.00;99769.91;21052094;28;20488;-69
2022/12/13 08:04:46;;;;;;;59.97;25.02;;;;;;;-5.65;100.00;99769.91;21033744;28;20048;-69
2022/12/13 08:14:55;;;;;;;63.90;24.77;;;;;;;-5.49;100.00;99773.13;21024593;28;20412;-70
2022/12/13 08:24:56;;;;;;;56.53;23.95;;;;;;;-5.42;100.00;99772.53;21026592;28;20480;-70
2022/12/13 08:34:58;;;;;;;56.13;23.83;;;;;;;-5.26;100.00;99757.81;21026596;28;20060;-70
2022/12/13 08:44:59;;;;;;;54.92;22.23;;;;;;;-5.04;100.00;99755.22;21022860;28;20531;-70
2022/12/13 08:55:00;;;;;;;56.10;22.95;;;;;;;-4.97;100.00;99761.44;21012228;28;20054;-70
2022/12/13 09:05:02;;;;;;;53.75;24.10;;;;;;;-4.66;100.00;99763.38;21047773;28;20052;-70
2022/12/13 09:15:03;;;;;;;48.22;21.98;;;;;;;-4.57;100.00;99757.72;21067870;28;20048;-70
2022/12/13 09:25:22;;;;;;;47.70;19.75;;;;;;;-4.30;100.00;99757.78;20999576;28;20060;-71
2022/12/13 09:35:24;;;;;;;46.28;20.35;;;;;;;-4.19;100.00;99764.97;20987647;28;20044;-70
2022/12/13 09:45:26;;;;;;;44.83;19.83;;;;;;;-4.10;100.00;99751.63;20987141;28;20115;-70
2022/12/13 09:55:32;;;;;;;40.75;19.00;;;;;;;-3.94;100.00;99758.94;21056603;28;20063;-70
2022/12/13 10:05:36;;;;;;;47.33;19.40;;;;;;;-3.95;100.00;99747.00;21069155;28;20556;-70
2022/12/13 10:15:40;;;;;;;41.00;18.27;;;;;;;-3.84;100.00;99738.78;21056768;28;20056;-71
2022/12/13 10:25:41;;;;;;;43.90;19.35;;;;;;;-3.84;100.00;99720.88;21082496;28;20055;-70
2022/12/13 10:35:43;;;;;;;44.63;19.83;;;;;;;-3.74;100.00;99710.09;21080697;28;20072;-70
2022/12/13 10:45:44;;;;;;;40.25;18.33;;;;;;;-3.58;100.00;99709.75;21080822;28;20059;-70
2022/12/13 10:55:45;;;;;;;50.10;21.17;;;;;;;-3.52;100.00;99717.63;21079988;28;20052;-70
2022/12/13 11:05:49;;;;;;;49.33;20.08;;;;;;;-3.40;100.00;99692.38;21077032;28;20051;-69
2022/12/13 11:15:50;;;;;;;41.23;19.07;;;;;;;-3.31;100.00;99684.06;21077527;28;20117;-69
2022/12/13 11:25:51;;;;;;;42.58;18.92;;;;;;;-3.18;100.00;99677.63;21076089;28;20200;-69
2022/12/13 11:35:54;;;;;;;39.03;17.23;;;;;;;-3.06;100.00;99688.22;21075642;28;20051;-68
2022/12/13 11:45:55;;;;;;;46.65;18.35;;;;;;;-2.89;100.00;99655.34;21075127;28;20094;-71
2022/12/13 11:55:56;;;;;;;36.08;15.75;;;;;;;-2.84;100.00;99649.50;21074339;28;20055;-71
2022/12/13 12:05:58;;;;;;;32.80;16.05;;;;;;;-2.64;100.00;99646.59;21072392;28;20052;-71
2022/12/13 12:15:59;;;;;;;34.33;15.45;;;;;;;-2.56;100.00;99629.72;21069209;28;20420;-73
2022/12/13 12:26:00;;;;;;;29.27;14.38;;;;;;;-2.71;100.00;99621.66;21047500;28;20420;-72
2022/12/13 12:36:02;;;;;;;35.30;14.02;;;;;;;-2.51;100.00;99615.31;21070094;28;20415;-72
2022/12/13 12:46:03;;;;;;;41.08;17.15;;;;;;;-2.40;100.00;99621.56;21069833;28;20056;-73
2022/12/13 12:56:04;;;;;;;39.00;16.92;;;;;;;-2.24;100.00;99612.53;21069525;28;20055;-73
2022/12/13 13:06:06;;;;;;;33.60;15.60;;;;;;;-2.15;100.00;99606.75;21068116;28;20051;-73
2022/12/13 13:16:07;;;;;;;34.78;14.35;;;;;;;-2.30;100.00;99591.00;21068588;28;20493;-73
2022/12/13 13:26:08;;;;;;;32.30;13.80;;;;;;;-2.28;100.00;99599.63;20988472;28;20515;-70
2022/12/13 13:36:29;;;;;;;31.35;14.93;;;;;;;-2.29;100.00;99593.63;20983200;28;20057;-70
2022/12/13 13:46:30;;;;;;;34.63;14.90;;;;;;;-2.34;100.00;99601.22;20983648;28;20113;-70
2022/12/13 14:18:02;;;;;;;34.90;15.95;;;;;;;-2.27;100.00;99596.22;20931323;28;20061;-84
2022/12/13 14:28:04;;;;;;;38.10;16.60;;;;;;;-2.34;100.00;99596.06;20948403;28;20106;-83
2022/12/13 14:38:05;;;;;;;33.80;15.18;;;;;;;-2.48;100.00;99582.06;20859522;28;20049;-84
2022/12/13 14:48:06;;;;;;;33.20;14.68;;;;;;;-2.49;100.00;99593.16;20848833;28;20512;-83
2022/12/13 14:58:08;;;;;;;33.42;15.18;;;;;;;-2.54;100.00;99576.78;20836383;28;20104;-82
2022/12/13 15:08:09;;;;;;;37.30;15.07;;;;;;;-2.50;100.00;99555.53;20853503;28;20100;-82
2022/12/13 15:18:11;;;;;;;38.53;16.80;;;;;;;-2.58;100.00;99551.94;20838917;28;20457;-83
2022/12/13 15:28:13;;;;;;;32.72;14.55;;;;;;;-2.70;100.00;99534.56;20847897;28;20045;-83
2022/12/13 15:38:21;;;;;;;34.20;15.55;;;;;;;-2.74;100.00;99529.34;20826624;28;20048;-83
2022/12/13 15:48:29;;;;;;;36.85;14.85;;;;;;;-2.75;100.00;99520.78;20879434;28;20055;-83
2022/12/13 15:58:31;;;;;;;35.00;15.82;;;;;;;-2.68;100.00;99517.56;20951843;28;20053;-82
2022/12/13 16:08:34;;;;;;;40.30;16.77;;;;;;;-2.79;100.00;99510.44;20918735;28;20057;-84
2022/12/13 16:18:35;;;;;;;38.37;15.80;;;;;;;-2.84;100.00;99513.75;20920547;28;20079;-84
2022/12/13 16:28:36;;;;;;;36.72;17.63;;;;;;;-2.86;100.00;99502.63;20915704;28;20048;-84
2022/12/13 16:38:38;;;;;;;35.90;15.20;;;;;;;-2.87;100.00;99512.84;20916968;28;20049;-84
2022/12/13 16:48:43;;;;;;;43.45;19.30;;;;;;;-2.85;100.00;99504.34;20925514;28;20064;-83
2022/12/13 16:58:46;;;;;;;42.47;19.75;;;;;;;-2.79;100.00;99505.31;20931120;28;20060;-84
2022/12/13 17:08:50;;;;;;;45.53;19.35;;;;;;;-2.93;100.00;99487.91;20957171;28;20512;-83
2022/12/13 17:18:54;;;;;;;36.38;16.40;;;;;;;-2.82;100.00;99479.66;20945272;28;20107;-84
2022/12/13 17:29:10;;;;;;;;;;;;;;;;;;;;;
2022/12/13 17:39:50;;;;;;;33.35;14.45;;;;;;;-2.78;100.00;99464.34;20923937;28;20049;-86
2022/12/13 17:50:31;;;;;;;;;;;;;;;;;;;;;
2022/12/13 18:00:50;;;;;;;42.65;16.95;;;;;;;-2.90;100.00;99430.78;20988366;23;20084;-84
2022/12/13 18:10:53;;;;;;;42.13;19.25;;;;;;;-2.85;100.00;99448.00;21000815;28;20052;-84
2022/12/13 18:21:14;;;;;;;42.83;19.20;;;;;;;-2.89;100.00;99433.38;21001475;28;20041;-84
2022/12/13 18:31:18;;;;;;;42.00;16.23;;;;;;;-2.90;100.00;99418.84;21008474;28;20044;-83
2022/12/13 18:41:21;;;;;;;36.15;16.55;;;;;;;-2.94;100.00;99405.94;21020894;28;20052;-83
2022/12/13 18:51:22;;;;;;;34.65;15.30;;;;;;;-2.90;100.00;99374.44;21023797;28;20055;-83
2022/12/13 19:01:26;;;;;;;36.80;17.05;;;;;;;-2.88;100.00;99396.69;21066550;28;20040;-82
2022/12/13 19:11:36;;;;;;;40.67;16.20;;;;;;;-2.89;100.00;99396.66;21092852;28;20044;-84
2022/12/13 19:21:38;;;;;;;37.20;16.40;;;;;;;-2.91;100.00;99381.28;21084425;28;20131;-84
2022/12/13 19:31:55;;;;;;;34.58;15.07;;;;;;;-3.00;100.00;99363.16;20902993;23;20053;-84
2022/12/13 19:42:21;;;;;;;;;;;;;;;;;;;;;
2022/12/13 19:52:34;;;;;;;33.67;14.77;;;;;;;-2.85;100.00;99354.91;20920245;28;20111;-84
2022/12/13 20:13:45;;;;;;;35.90;14.18;;;;;;;-2.92;100.00;99312.97;20962636;23;20072;-84
2022/12/13 20:24:05;;;;;;;32.05;15.05;;;;;;;-2.86;100.00;99282.34;21007229;28;20053;-86
2022/12/13 20:34:36;;;;;;;;;;;;;;;;;;;;;
2022/12/13 20:44:42;;;;;;;30.15;13.68;;;;;;;-2.82;100.00;99288.41;21012665;28;20489;-85
2022/12/13 20:54:44;;;;;;;33.10;14.32;;;;;;;-2.80;100.00;99284.16;21013168;28;20056;-85
2022/12/13 21:04:47;;;;;;;30.05;14.20;;;;;;;-2.82;100.00;99279.84;20990546;28;20044;-84
2022/12/13 21:14:49;;;;;;;29.45;12.95;;;;;;;-2.71;100.00;99250.16;21015449;28;20093;-84
2022/12/13 21:24:50;;;;;;;30.17;13.90;;;;;;;-2.71;100.00;99224.56;20931612;28;20696;-85
2022/12/13 21:34:51;;;;;;;31.08;13.00;;;;;;;-2.69;100.00;99240.81;20948283;28;20179;-85
2022/12/13 21:44:53;;;;;;;35.10;14.55;;;;;;;-2.59;100.00;99215.41;20941723;28;20048;-86
2022/12/13 21:55:02;;;;;;;28.80;13.75;;;;;;;-2.51;100.00;99182.19;21020033;28;20048;-85
2022/12/13 22:05:23;;;;;;;32.20;14.88;;;;;;;-2.51;100.00;99182.19;21000010;28;20059;-85
2022/12/13 22:15:24;;;;;;;34.15;14.65;;;;;;;-2.57;100.00;99151.34;21016522;28;20055;-85
2022/12/13 22:25:25;;;;;;;30.73;13.75;;;;;;;-2.53;100.00;99153.13;21021455;28;20053;-83
2022/12/13 22:35:27;;;;;;;26.50;11.75;;;;;;;-2.43;100.00;99159.28;21022186;28;20151;-84
2022/12/13 22:45:28;;;;;;;30.55;12.55;;;;;;;-2.42;100.00;99131.09;21031016;28;20073;-83
2022/12/13 22:55:29;;;;;;;22.13;11.15;;;;;;;-2.38;100.00;99124.31;21072438;28;20056;-85
2022/12/13 23:05:31;;;;;;;28.92;12.68;;;;;;;-2.40;100.00;99133.69;21008929;28;20045;-83
2022/12/13 23:15:32;;;;;;;25.80;11.73;;;;;;;-2.43;100.00;99111.44;21002966;28;20135;-83
2022/12/13 23:25:34;;;;;;;23.55;11.30;;;;;;;-2.34;100.00;99131.22;21000764;28;20055;-83
2022/12/13 23:35:35;;;;;;;22.30;10.68;;;;;;;-2.26;100.00;99115.94;21003636;28;20041;-83
2022/12/13 23:45:37;;;;;;;22.25;10.38;;;;;;;-2.38;100.00;99097.00;21001384;28;20060;-83
2022/12/13 23:55:38;;;;;;;23.17;9.80;;;;;;;-2.20;100.00;99090.41;20998833;28;20063;-82
